Time;durP1;ratioP1;P1;durP2;ratioP2;P2;SDS_P1;SDS_P2;PMS_P1;PMS_P2;Temp;Humidity;BMP_temperature;BMP_pressure;BME280_temperature;BME280_humidity;BME280_pressure;Samples;Min_cycle;Max_cycle;Signal;HPM_P1;HPM_P2
2020/12/16 00:04:09;;;;;;;11.10;5.03;;;;;;;;;;4817194;28;21723;-55
2020/12/16 00:06:36;;;;;;;10.30;4.55;;;;;;;;;;4190553;34;20097;-56
2020/12/16 00:09:01;;;;;;;8.60;4.55;;;;;;;;;;4188233;34;20118;-56
2020/12/16 00:11:27;;;;;;;8.82;4.82;;;;;;;;;;4177039;34;20125;-58
2020/12/16 00:13:53;;;;;;;6.75;5.12;;;;;;;;;;4176696;34;20114;-59
2020/12/16 00:16:19;;;;;;;7.68;4.80;;;;;;;;;;4177257;34;20106;-59
2020/12/16 00:18:45;;;;;;;7.53;5.18;;;;;;;;;;4176805;34;20099;-59
2020/12/16 00:21:11;;;;;;;6.97;5.03;;;;;;;;;;4176776;34;20185;-59
2020/12/16 00:23:37;;;;;;;8.30;5.05;;;;;;;;;;4176703;34;20110;-60
2020/12/16 00:26:03;;;;;;;7.10;4.47;;;;;;;;;;4176795;34;20091;-59
2020/12/16 00:28:29;;;;;;;9.07;5.03;;;;;;;;;;4176829;34;20230;-59
2020/12/16 00:30:55;;;;;;;10.35;4.87;;;;;;;;;;4177022;34;20156;-58
2020/12/16 00:33:21;;;;;;;6.68;5.00;;;;;;;;;;4176838;34;20538;-59
2020/12/16 00:35:47;;;;;;;11.55;4.82;;;;;;;;;;4174731;34;20581;-59
2020/12/16 00:38:13;;;;;;;6.28;4.57;;;;;;;;;;4173932;34;20478;-59
2020/12/16 00:40:39;;;;;;;7.82;5.12;;;;;;;;;;4176354;34;20113;-58
2020/12/16 00:43:05;;;;;;;8.07;5.12;;;;;;;;;;4176709;34;20110;-58
2020/12/16 00:45:31;;;;;;;11.57;4.80;;;;;;;;;;4176841;34;20647;-59
2020/12/16 00:47:57;;;;;;;10.82;4.95;;;;;;;;;;4178971;34;20210;-60
2020/12/16 00:50:23;;;;;;;12.93;5.53;;;;;;;;;;4178593;34;20117;-59
2020/12/16 00:52:49;;;;;;;6.72;4.97;;;;;;;;;;4178630;34;20106;-59
2020/12/16 00:55:15;;;;;;;12.48;5.22;;;;;;;;;;4178847;34;20122;-59
2020/12/16 00:57:42;;;;;;;6.82;5.15;;;;;;;;;;4178591;34;20443;-60
2020/12/16 01:00:08;;;;;;;8.73;5.40;;;;;;;;;;4178620;34;20226;-60
2020/12/16 01:02:37;;;;;;;10.52;5.30;;;;;;;;;;4178579;34;20101;-60
2020/12/16 01:05:06;;;;;;;6.45;4.78;;;;;;;;;;4178474;34;20130;-60
2020/12/16 01:07:32;;;;;;;9.43;4.97;;;;;;;;;;4178567;34;20516;-59
2020/12/16 01:09:58;;;;;;;7.32;5.32;;;;;;;;;;4178417;34;20262;-59
2020/12/16 01:12:24;;;;;;;11.57;5.47;;;;;;;;;;4178560;34;20224;-60
2020/12/16 01:14:49;;;;;;;8.25;4.68;;;;;;;;;;4178380;34;20129;-59
2020/12/16 01:17:15;;;;;;;8.38;5.18;;;;;;;;;;4179668;34;20206;-53
2020/12/16 01:19:41;;;;;;;11.48;4.95;;;;;;;;;;4179057;34;20145;-57
2020/12/16 01:22:07;;;;;;;8.07;5.43;;;;;;;;;;4178502;34;20114;-59
2020/12/16 01:24:33;;;;;;;11.18;4.95;;;;;;;;;;4174508;34;20132;-59
2020/12/16 01:26:59;;;;;;;7.28;5.05;;;;;;;;;;4178444;34;20110;-59
2020/12/16 01:29:24;;;;;;;7.50;5.43;;;;;;;;;;4178350;34;20606;-59
2020/12/16 01:31:50;;;;;;;15.27;4.90;;;;;;;;;;4178359;34;20533;-59
2020/12/16 01:34:19;;;;;;;9.52;5.28;;;;;;;;;;4178396;34;20538;-59
2020/12/16 01:36:46;;;;;;;8.13;5.15;;;;;;;;;;4180747;34;20542;-59
2020/12/16 01:39:12;;;;;;;9.43;5.70;;;;;;;;;;4192284;34;20249;-59
2020/12/16 01:41:48;;;;;;;9.82;5.10;;;;;;;;;;4192304;34;20129;-59
2020/12/16 01:44:16;;;;;;;7.87;4.82;;;;;;;;;;4191964;34;20118;-59
2020/12/16 01:46:51;;;;;;;7.80;4.90;;;;;;;;;;4191964;34;20184;-59
2020/12/16 01:49:18;;;;;;;;;;;;;;;;;;4192563;34;20126;-59
2020/12/16 01:51:44;;;;;;;7.05;4.50;;;;;;;;;;4192013;34;20065;-59
2020/12/16 01:54:10;;;;;;;10.90;5.40;;;;;;;;;;4191830;34;20121;-59
2020/12/16 01:56:40;;;;;;;10.40;5.00;;;;;;;;;;4191504;34;20205;-60
2020/12/16 01:59:07;;;;;;;13.23;5.40;;;;;;;;;;4191756;34;20157;-60
2020/12/16 02:01:33;;;;;;;13.93;5.22;;;;;;;;;;4187848;34;20102;-60
2020/12/16 02:03:59;;;;;;;11.55;5.62;;;;;;;;;;4179527;34;20450;-60
2020/12/16 02:06:25;;;;;;;7.75;5.10;;;;;;;;;;4205509;34;20525;-59
2020/12/16 02:09:06;;;;;;;8.00;5.22;;;;;;;;;;4192425;34;20116;-60
2020/12/16 02:11:32;;;;;;;6.65;4.82;;;;;;;;;;4205643;34;20109;-59
2020/12/16 02:13:59;;;;;;;6.68;5.03;;;;;;;;;;4205703;34;20137;-59
2020/12/16 02:16:25;;;;;;;8.25;5.50;;;;;;;;;;4205523;34;20135;-58
2020/12/16 02:18:52;;;;;;;11.45;5.35;;;;;;;;;;4192460;34;20541;-60
2020/12/16 02:21:18;;;;;;;8.98;5.10;;;;;;;;;;4205394;34;20113;-59
2020/12/16 02:23:45;;;;;;;10.85;5.20;;;;;;;;;;4205772;34;20089;-57
2020/12/16 02:26:11;;;;;;;8.73;5.28;;;;;;;;;;4205429;34;20159;-58
2020/12/16 02:28:37;;;;;;;10.77;5.12;;;;;;;;;;4192498;34;20549;-58
2020/12/16 02:31:02;;;;;;;7.95;4.90;;;;;;;;;;4205391;34;20205;-58
2020/12/16 02:33:28;;;;;;;10.80;5.25;;;;;;;;;;4181183;34;20469;-57
2020/12/16 02:35:54;;;;;;;13.10;6.18;;;;;;;;;;4205605;34;20296;-58
2020/12/16 02:38:20;;;;;;;11.85;5.45;;;;;;;;;;4205376;34;20200;-58
2020/12/16 02:40:46;;;;;;;8.10;5.30;;;;;;;;;;4205119;34;20141;-58
2020/12/16 02:43:12;;;;;;;9.68;5.35;;;;;;;;;;4205342;34;20100;-58
2020/12/16 02:45:39;;;;;;;10.70;5.50;;;;;;;;;;4205458;34;20106;-59
2020/12/16 02:48:05;;;;;;;8.63;5.10;;;;;;;;;;4205544;34;20522;-59
2020/12/16 02:50:31;;;;;;;15.32;6.35;;;;;;;;;;4205058;34;20136;-59
2020/12/16 02:52:57;;;;;;;10.60;5.40;;;;;;;;;;4205457;34;20588;-60
2020/12/16 02:55:23;;;;;;;14.90;5.82;;;;;;;;;;4205096;34;20120;-58
2020/12/16 02:57:49;;;;;;;13.48;5.55;;;;;;;;;;4191478;34;20525;-61
2020/12/16 03:00:15;;;;;;;11.85;5.78;;;;;;;;;;4178465;34;20471;-58
2020/12/16 03:02:41;;;;;;;14.98;6.03;;;;;;;;;;4191481;34;20108;-58
2020/12/16 03:05:06;;;;;;;12.95;6.15;;;;;;;;;;4191084;34;20203;-56
2020/12/16 03:07:34;;;;;;;8.77;5.47;;;;;;;;;;4191261;34;20546;-57
2020/12/16 03:10:01;;;;;;;12.48;5.87;;;;;;;;;;4190315;34;20526;-57
2020/12/16 03:12:27;;;;;;;18.23;6.00;;;;;;;;;;4191335;34;20138;-59
2020/12/16 03:14:53;;;;;;;12.15;6.15;;;;;;;;;;4189751;34;20529;-58
2020/12/16 03:17:19;;;;;;;12.52;6.45;;;;;;;;;;4188969;34;20137;-58
2020/12/16 03:19:45;;;;;;;16.67;6.95;;;;;;;;;;4188899;34;20526;-60
2020/12/16 03:22:11;;;;;;;10.18;5.62;;;;;;;;;;4188943;34;20218;-58
2020/12/16 03:24:37;;;;;;;10.00;5.97;;;;;;;;;;4188792;34;20207;-59
2020/12/16 03:27:03;;;;;;;15.38;6.12;;;;;;;;;;4188795;34;20111;-57
2020/12/16 03:29:29;;;;;;;15.02;6.22;;;;;;;;;;4189236;34;20110;-58
2020/12/16 03:31:54;;;;;;;12.98;5.87;;;;;;;;;;4189504;34;20502;-59
2020/12/16 03:34:20;;;;;;;8.73;5.70;;;;;;;;;;4190858;34;20112;-58
2020/12/16 03:36:46;;;;;;;12.95;6.57;;;;;;;;;;4190979;34;20137;-58
2020/12/16 03:39:12;;;;;;;16.15;5.68;;;;;;;;;;4184264;34;20110;-57
2020/12/16 03:41:38;;;;;;;11.32;5.78;;;;;;;;;;4184000;34;20126;-59
2020/12/16 03:44:04;;;;;;;9.30;6.53;;;;;;;;;;4188515;34;20120;-58
2020/12/16 03:46:30;;;;;;;7.75;5.97;;;;;;;;;;4191030;34;20154;-59
2020/12/16 03:48:55;;;;;;;8.63;5.85;;;;;;;;;;4190774;34;20111;-59
2020/12/16 03:51:21;;;;;;;14.38;5.90;;;;;;;;;;4178210;34;20130;-58
2020/12/16 03:53:47;;;;;;;15.07;5.68;;;;;;;;;;4183917;34;20133;-58
2020/12/16 03:56:14;;;;;;;15.65;5.93;;;;;;;;;;4182290;34;20137;-58
2020/12/16 03:58:41;;;;;;;9.50;5.57;;;;;;;;;;4168981;34;20122;-58
2020/12/16 04:01:08;;;;;;;18.33;5.80;;;;;;;;;;4182531;34;20105;-60
2020/12/16 04:03:34;;;;;;;11.02;5.20;;;;;;;;;;4176745;34;20114;-59
2020/12/16 04:06:00;;;;;;;8.27;5.07;;;;;;;;;;4176721;34;20534;-59
2020/12/16 04:08:27;;;;;;;8.20;5.28;;;;;;;;;;4183281;34;20502;-59
2020/12/16 04:10:54;;;;;;;16.65;5.68;;;;;;;;;;4188565;34;20121;-59
2020/12/16 04:13:20;;;;;;;11.88;5.60;;;;;;;;;;4189147;34;20586;-58
2020/12/16 04:15:46;;;;;;;19.20;6.20;;;;;;;;;;4189026;34;20142;-59
2020/12/16 04:18:12;;;;;;;10.38;5.57;;;;;;;;;;4188952;34;20526;-59
2020/12/16 04:20:38;;;;;;;12.68;5.93;;;;;;;;;;4189850;34;20221;-59
2020/12/16 04:23:04;;;;;;;14.85;5.75;;;;;;;;;;4191072;34;20301;-58
2020/12/16 04:25:31;;;;;;;17.05;5.80;;;;;;;;;;4192274;34;20098;-59
2020/12/16 04:27:57;;;;;;;14.50;5.22;;;;;;;;;;4179592;34;20158;-59
2020/12/16 04:30:23;;;;;;;14.55;5.55;;;;;;;;;;4192613;34;20098;-59
2020/12/16 04:32:51;;;;;;;12.02;5.28;;;;;;;;;;4192484;34;20105;-58
2020/12/16 04:35:18;;;;;;;12.75;5.78;;;;;;;;;;4192542;34;20443;-58
2020/12/16 04:37:47;;;;;;;9.80;5.57;;;;;;;;;;4192538;34;20129;-58
2020/12/16 04:40:14;;;;;;;15.32;6.12;;;;;;;;;;4192332;34;20185;-59
2020/12/16 04:42:40;;;;;;;11.85;5.70;;;;;;;;;;4192310;34;20092;-58
2020/12/16 04:45:06;;;;;;;15.38;5.68;;;;;;;;;;4192277;34;20440;-59
2020/12/16 04:47:32;;;;;;;20.23;6.47;;;;;;;;;;4192516;34;20206;-59
2020/12/16 04:49:58;;;;;;;16.48;5.80;;;;;;;;;;4192552;34;20118;-59
2020/12/16 04:52:24;;;;;;;10.13;5.62;;;;;;;;;;4192284;34;20109;-58
2020/12/16 04:54:50;;;;;;;12.98;5.78;;;;;;;;;;4168001;34;20446;-59
2020/12/16 04:57:16;;;;;;;10.23;5.50;;;;;;;;;;4168160;34;20102;-59
2020/12/16 04:59:42;;;;;;;11.98;6.20;;;;;;;;;;4179605;34;20152;-59
2020/12/16 05:02:08;;;;;;;11.93;5.78;;;;;;;;;;4192038;34;20125;-58
2020/12/16 05:04:33;;;;;;;12.48;5.45;;;;;;;;;;4191942;34;20181;-59
2020/12/16 05:06:59;;;;;;;17.35;6.30;;;;;;;;;;4192329;34;20115;-59
2020/12/16 05:09:25;;;;;;;72.93;10.70;;;;;;;;;;4192143;34;20446;-58
2020/12/16 05:11:52;;;;;;;27.98;7.32;;;;;;;;;;4191945;34;20129;-58
2020/12/16 05:14:18;;;;;;;11.20;5.78;;;;;;;;;;4191986;34;20110;-58
2020/12/16 05:17:04;;;;;;;9.23;5.55;;;;;;;;;;4192135;34;20114;-58
2020/12/16 05:19:40;;;;;;;12.50;5.75;;;;;;;;;;4192227;34;20106;-58
2020/12/16 05:22:31;;;;;;;10.02;6.32;;;;;;;;;;4191869;34;20117;-59
2020/12/16 05:24:58;;;;;;;14.57;5.82;;;;;;;;;;4191964;34;20614;-59
2020/12/16 05:27:28;;;;;;;11.85;5.90;;;;;;;;;;4192199;34;20202;-58
2020/12/16 05:29:55;;;;;;;22.13;6.43;;;;;;;;;;4191996;34;20125;-59
2020/12/16 05:32:35;;;;;;;11.85;6.18;;;;;;;;;;4191518;34;20498;-59
2020/12/16 05:35:18;;;;;;;12.25;5.62;;;;;;;;;;4192175;34;20535;-58
2020/12/16 05:37:45;;;;;;;12.40;6.10;;;;;;;;;;4181133;34;20140;-59
2020/12/16 05:40:13;;;;;;;16.65;5.65;;;;;;;;;;4179218;34;20130;-59
2020/12/16 05:42:39;;;;;;;12.85;7.28;;;;;;;;;;4191947;34;20457;-59
2020/12/16 05:45:15;;;;;;;11.05;5.60;;;;;;;;;;4191954;34;20129;-59
2020/12/16 05:48:06;;;;;;;12.40;5.97;;;;;;;;;;4191962;34;20217;-60
2020/12/16 05:50:59;;;;;;;14.87;5.82;;;;;;;;;;4181152;34;20266;-59
2020/12/16 05:53:26;;;;;;;14.65;6.00;;;;;;;;;;4190314;34;20117;-59
2020/12/16 05:55:54;;;;;;;10.07;5.45;;;;;;;;;;4191549;34;20129;-59
2020/12/16 05:58:21;;;;;;;12.02;6.05;;;;;;;;;;4191689;34;20213;-58
2020/12/16 06:00:51;;;;;;;9.63;6.00;;;;;;;;;;4191283;34;20537;-58
2020/12/16 06:03:22;;;;;;;9.90;5.60;;;;;;;;;;4191698;34;20145;-59
2020/12/16 06:06:04;;;;;;;14.38;6.25;;;;;;;;;;4176358;34;20688;-58
2020/12/16 06:08:34;;;;;;;13.48;5.50;;;;;;;;;;4177968;34;20142;-58
2020/12/16 06:11:01;;;;;;;13.85;6.70;;;;;;;;;;4171001;34;20118;-58
2020/12/16 06:13:28;;;;;;;11.77;6.62;;;;;;;;;;4177859;34;20126;-59
2020/12/16 06:16:04;;;;;;;13.15;6.32;;;;;;;;;;4177639;34;20128;-59
2020/12/16 06:18:43;;;;;;;13.45;6.68;;;;;;;;;;4177879;34;20110;-59
2020/12/16 06:21:10;;;;;;;13.02;6.37;;;;;;;;;;4177827;34;20467;-59
2020/12/16 06:23:40;;;;;;;16.37;7.20;;;;;;;;;;4177684;34;20118;-58
2020/12/16 06:26:08;;;;;;;14.75;6.32;;;;;;;;;;4177805;34;20122;-60
2020/12/16 06:28:34;;;;;;;12.07;5.80;;;;;;;;;;4177814;34;20118;-59
2020/12/16 06:31:04;;;;;;;16.12;6.10;;;;;;;;;;4177542;34;20210;-64
2020/12/16 06:33:47;;;;;;;11.90;5.70;;;;;;;;;;4177888;34;20122;-58
2020/12/16 06:36:13;;;;;;;13.85;6.50;;;;;;;;;;4172148;34;20173;-59
2020/12/16 06:38:49;;;;;;;13.38;6.20;;;;;;;;;;4176194;34;20115;-59
2020/12/16 06:41:20;;;;;;;12.10;6.55;;;;;;;;;;4177682;34;20114;-59
2020/12/16 06:43:46;;;;;;;12.68;6.62;;;;;;;;;;4177664;34;20101;-59
2020/12/16 06:46:30;;;;;;;12.75;6.40;;;;;;;;;;4177650;34;20436;-59
2020/12/16 06:48:57;;;;;;;11.02;6.40;;;;;;;;;;4177431;34;20102;-59
2020/12/16 06:51:24;;;;;;;15.95;6.70;;;;;;;;;;4177655;34;20178;-58
2020/12/16 06:54:02;;;;;;;13.57;6.60;;;;;;;;;;4174946;34;20598;-59
2020/12/16 06:56:28;;;;;;;12.57;6.35;;;;;;;;;;4177671;34;20523;-59
2020/12/16 06:58:54;;;;;;;16.62;6.47;;;;;;;;;;4177155;34;20654;-59
2020/12/16 07:01:20;;;;;;;11.48;6.70;;;;;;;;;;4177360;34;20102;-59
2020/12/16 07:03:46;;;;;;;17.87;7.37;;;;;;;;;;4177269;34;20137;-59
2020/12/16 07:06:35;;;;;;;13.15;6.78;;;;;;;;;;4175468;34;20145;-59
2020/12/16 07:09:23;;;;;;;14.48;7.03;;;;;;;;;;4179088;34;20109;-58
2020/12/16 07:11:50;;;;;;;13.65;6.72;;;;;;;;;;4191405;34;20531;-59
2020/12/16 07:14:21;;;;;;;16.70;8.30;;;;;;;;;;4191225;34;20126;-59
2020/12/16 07:16:47;;;;;;;13.15;7.50;;;;;;;;;;4191027;34;20267;-58
2020/12/16 07:19:13;;;;;;;18.33;10.45;;;;;;;;;;4191051;34;20126;-59
2020/12/16 07:21:40;;;;;;;13.45;9.48;;;;;;;;;;4191180;34;20227;-59
2020/12/16 07:24:10;;;;;;;11.07;8.73;;;;;;;;;;4191145;34;20217;-58
2020/12/16 07:26:50;;;;;;;15.63;8.18;;;;;;;;;;4190987;34;20533;-58
2020/12/16 07:29:30;;;;;;;10.75;6.30;;;;;;;;;;4179552;34;20130;-58
2020/12/16 07:32:08;;;;;;;12.27;6.25;;;;;;;;;;4178441;34;20118;-58
2020/12/16 07:34:56;;;;;;;13.60;6.22;;;;;;;;;;4191100;34;20129;-59
2020/12/16 07:37:27;;;;;;;9.60;5.68;;;;;;;;;;4190940;34;20121;-59
2020/12/16 07:39:54;;;;;;;16.05;6.75;;;;;;;;;;4190772;34;20549;-59
2020/12/16 07:42:26;;;;;;;10.52;6.10;;;;;;;;;;4190861;34;20095;-59
2020/12/16 07:44:53;;;;;;;12.43;6.37;;;;;;;;;;4190800;34;20137;-59
2020/12/16 07:47:19;;;;;;;16.05;7.15;;;;;;;;;;4191120;34;20119;-59
2020/12/16 07:49:45;;;;;;;17.25;6.80;;;;;;;;;;4178129;34;20125;-58
2020/12/16 07:52:12;;;;;;;8.23;5.80;;;;;;;;;;4190814;34;20132;-59
2020/12/16 07:54:38;;;;;;;15.93;7.30;;;;;;;;;;4190182;34;20555;-59
2020/12/16 07:57:04;;;;;;;13.75;7.07;;;;;;;;;;4178038;34;20114;-58
2020/12/16 07:59:32;;;;;;;11.60;6.37;;;;;;;;;;4190661;34;20222;-60
2020/12/16 08:02:24;;;;;;;12.43;6.15;;;;;;;;;;4190597;34;20137;-58
2020/12/16 08:04:59;;;;;;;11.95;6.28;;;;;;;;;;4188876;34;20113;-58
2020/12/16 08:07:29;;;;;;;10.37;6.13;;;;;;;;;;4190934;34;20128;-59
2020/12/16 08:10:01;;;;;;;11.60;5.65;;;;;;;;;;4190757;34;20113;-58
2020/12/16 08:12:28;;;;;;;18.52;6.30;;;;;;;;;;4190554;34;20129;-57
2020/12/16 08:15:27;;;;;;;8.02;6.05;;;;;;;;;;4177732;34;20118;-57
2020/12/16 08:17:53;;;;;;;18.48;6.32;;;;;;;;;;4184694;34;20134;-58
2020/12/16 08:20:20;;;;;;;9.57;6.22;;;;;;;;;;4190332;34;20677;-58
2020/12/16 08:22:47;;;;;;;9.30;6.32;;;;;;;;;;4190301;34;20128;-58
2020/12/16 08:25:14;;;;;;;13.50;6.95;;;;;;;;;;4190184;34;20094;-58
2020/12/16 08:27:44;;;;;;;9.63;6.62;;;;;;;;;;4190274;34;20202;-58
2020/12/16 08:30:15;;;;;;;16.87;6.78;;;;;;;;;;4190215;34;20201;-57
2020/12/16 08:33:06;;;;;;;10.02;6.35;;;;;;;;;;4190536;34;20450;-60
2020/12/16 08:35:50;;;;;;;9.63;6.35;;;;;;;;;;4190096;34;20137;-63
2020/12/16 08:38:27;;;;;;;13.50;7.18;;;;;;;;;;4190315;34;20152;-58
2020/12/16 08:40:55;;;;;;;14.35;7.07;;;;;;;;;;4190214;34;20118;-58
2020/12/16 08:43:28;;;;;;;11.65;7.35;;;;;;;;;;4190278;34;20117;-58
2020/12/16 08:46:05;;;;;;;15.38;7.30;;;;;;;;;;4190106;34;20106;-55
2020/12/16 08:48:44;;;;;;;16.42;7.47;;;;;;;;;;4190451;34;20150;-58
2020/12/16 08:51:12;;;;;;;10.95;6.65;;;;;;;;;;4189919;34;20125;-58
2020/12/16 08:53:47;;;;;;;14.00;7.22;;;;;;;;;;4190362;34;20464;-58
2020/12/16 08:56:29;;;;;;;15.38;8.23;;;;;;;;;;4190033;34;20103;-58
2020/12/16 08:59:07;;;;;;;18.92;8.48;;;;;;;;;;4189915;34;20155;-58
2020/12/16 09:01:34;;;;;;;18.67;9.45;;;;;;;;;;4189875;34;20106;-58
2020/12/16 09:04:00;;;;;;;18.12;9.43;;;;;;;;;;4177125;34;20458;-59
2020/12/16 09:06:26;;;;;;;13.73;8.65;;;;;;;;;;4177401;34;20249;-59
2020/12/16 09:08:52;;;;;;;14.68;9.18;;;;;;;;;;4191915;34;20126;-59
2020/12/16 09:11:21;;;;;;;18.52;10.90;;;;;;;;;;4192154;34;20190;-59
2020/12/16 09:13:51;;;;;;;15.30;11.12;;;;;;;;;;4191944;34;20110;-59
2020/12/16 09:16:27;;;;;;;12.73;8.35;;;;;;;;;;4192068;34;20098;-61
2020/12/16 09:18:53;;;;;;;13.82;8.73;;;;;;;;;;4179058;34;20102;-60
2020/12/16 09:21:31;;;;;;;14.50;7.60;;;;;;;;;;4191937;34;20220;-58
2020/12/16 09:23:57;;;;;;;17.27;8.05;;;;;;;;;;4191843;34;20121;-62
2020/12/16 09:26:41;;;;;;;16.62;7.90;;;;;;;;;;4192003;34;20108;-64
2020/12/16 09:29:32;;;;;;;12.10;7.18;;;;;;;;;;4191925;34;20098;-65
2020/12/16 09:32:13;;;;;;;14.70;7.65;;;;;;;;;;4190512;34;20118;-61
2020/12/16 09:34:49;;;;;;;16.58;7.90;;;;;;;;;;4191917;34;20302;-61
2020/12/16 09:37:16;;;;;;;15.90;8.80;;;;;;;;;;4192212;34;20109;-61
2020/12/16 09:39:47;;;;;;;16.00;8.30;;;;;;;;;;4191927;34;20242;-62
2020/12/16 09:42:17;;;;;;;19.02;8.82;;;;;;;;;;4192102;34;20137;-60
2020/12/16 09:44:43;;;;;;;13.23;8.48;;;;;;;;;;4191818;34;20229;-60
2020/12/16 09:47:14;;;;;;;15.05;8.25;;;;;;;;;;4191925;34;20213;-62
2020/12/16 09:49:40;;;;;;;17.58;9.13;;;;;;;;;;4192013;34;20458;-60
2020/12/16 09:52:23;;;;;;;15.60;9.20;;;;;;;;;;4191805;34;20091;-62
2020/12/16 09:54:49;;;;;;;11.00;8.30;;;;;;;;;;4191706;34;20121;-60
2020/12/16 09:57:15;;;;;;;19.00;9.07;;;;;;;;;;4191765;34;20501;-60
2020/12/16 09:59:41;;;;;;;12.02;8.40;;;;;;;;;;4178083;34;20515;-61
2020/12/16 10:02:07;;;;;;;14.30;8.02;;;;;;;;;;4188256;34;20596;-61
2020/12/16 10:04:33;;;;;;;16.27;8.48;;;;;;;;;;4191205;34;20117;-56
2020/12/16 10:06:59;;;;;;;19.58;9.38;;;;;;;;;;4178081;34;20098;-61
2020/12/16 10:09:25;;;;;;;17.48;9.00;;;;;;;;;;4177820;34;20157;-61
2020/12/16 10:11:51;;;;;;;13.80;8.88;;;;;;;;;;4190718;34;20146;-61
2020/12/16 10:14:17;;;;;;;13.82;10.43;;;;;;;;;;4191401;34;20145;-60
2020/12/16 10:16:47;;;;;;;16.77;9.35;;;;;;;;;;4178240;34;20101;-59
2020/12/16 10:19:14;;;;;;;16.52;10.88;;;;;;;;;;4191126;34;20217;-59
2020/12/16 10:21:40;;;;;;;16.17;10.00;;;;;;;;;;4191054;34;20515;-61
2020/12/16 10:24:06;;;;;;;23.05;14.60;;;;;;;;;;4191484;34;20179;-59
2020/12/16 10:26:32;;;;;;;18.37;11.12;;;;;;;;;;4191263;34;20094;-61
2020/12/16 10:28:58;;;;;;;18.15;10.93;;;;;;;;;;4191356;34;20222;-60
2020/12/16 10:31:24;;;;;;;20.55;13.07;;;;;;;;;;4191032;34;20122;-58
2020/12/16 10:33:50;;;;;;;17.35;10.90;;;;;;;;;;4191113;34;20222;-58
2020/12/16 10:36:16;;;;;;;21.80;9.50;;;;;;;;;;4190733;34;20212;-60
2020/12/16 10:38:42;;;;;;;22.70;12.13;;;;;;;;;;4191033;34;20098;-58
2020/12/16 10:41:07;;;;;;;14.75;10.18;;;;;;;;;;4182355;34;20190;-57
2020/12/16 10:43:33;;;;;;;19.08;9.82;;;;;;;;;;4177713;34;20133;-59
2020/12/16 10:45:59;;;;;;;15.20;9.10;;;;;;;;;;4177324;34;20116;-58
2020/12/16 10:48:25;;;;;;;14.55;8.07;;;;;;;;;;4177262;34;20533;-57
2020/12/16 10:50:51;;;;;;;11.00;8.27;;;;;;;;;;4177422;34;20188;-59
2020/12/16 10:53:17;;;;;;;13.70;8.23;;;;;;;;;;4177765;34;20134;-58
2020/12/16 10:55:43;;;;;;;12.68;8.05;;;;;;;;;;4177418;34;20658;-58
2020/12/16 10:58:09;;;;;;;16.50;9.02;;;;;;;;;;4177605;34;20125;-59
2020/12/16 11:00:35;;;;;;;17.35;9.52;;;;;;;;;;4177207;34;20115;-59
2020/12/16 11:03:02;;;;;;;17.90;9.48;;;;;;;;;;4177478;34;20514;-64
2020/12/16 11:05:28;;;;;;;18.80;9.35;;;;;;;;;;4177137;34;20217;-57
2020/12/16 11:07:54;;;;;;;20.40;13.30;;;;;;;;;;4177383;34;20156;-59
2020/12/16 11:10:19;;;;;;;28.65;17.15;;;;;;;;;;4177327;34;20111;-59
2020/12/16 11:12:45;;;;;;;22.98;16.85;;;;;;;;;;4177298;34;20215;-59
2020/12/16 11:15:11;;;;;;;21.98;15.98;;;;;;;;;;4176717;34;20510;-62
2020/12/16 11:17:38;;;;;;;19.42;14.75;;;;;;;;;;4153813;34;20468;-60
2020/12/16 11:20:04;;;;;;;18.75;13.75;;;;;;;;;;4164653;34;20106;-59
2020/12/16 11:22:30;;;;;;;17.55;9.60;;;;;;;;;;4177251;34;20197;-58
2020/12/16 11:24:56;;;;;;;17.95;9.85;;;;;;;;;;4177052;34;20146;-59
2020/12/16 11:27:22;;;;;;;14.05;10.48;;;;;;;;;;4176915;34;20102;-60
2020/12/16 11:29:49;;;;;;;18.52;11.10;;;;;;;;;;4192982;34;20221;-59
2020/12/16 11:32:15;;;;;;;20.77;9.77;;;;;;;;;;4190904;34;20533;-59
2020/12/16 11:34:41;;;;;;;19.95;9.23;;;;;;;;;;4190924;34;20189;-60
2020/12/16 11:37:07;;;;;;;19.02;8.65;;;;;;;;;;4191067;34;20504;-59
2020/12/16 11:39:33;;;;;;;16.05;7.82;;;;;;;;;;4190655;34;20198;-58
2020/12/16 11:41:58;;;;;;;21.77;9.02;;;;;;;;;;4190998;34;20133;-59
2020/12/16 11:44:25;;;;;;;14.93;8.93;;;;;;;;;;4190715;34;20192;-59
2020/12/16 11:46:51;;;;;;;13.38;10.90;;;;;;;;;;4190847;34;20136;-59
2020/12/16 11:49:18;;;;;;;26.95;17.30;;;;;;;;;;4190613;34;20118;-60
2020/12/16 11:51:44;;;;;;;23.48;18.17;;;;;;;;;;4190834;34;20096;-60
2020/12/16 11:54:09;;;;;;;17.92;11.88;;;;;;;;;;4190882;34;20152;-59
2020/12/16 11:56:36;;;;;;;16.73;10.35;;;;;;;;;;4190867;34;20536;-59
2020/12/16 11:59:03;;;;;;;21.95;13.90;;;;;;;;;;4190470;34;20145;-60
2020/12/16 12:01:28;;;;;;;20.50;12.18;;;;;;;;;;4190758;34;20184;-60
2020/12/16 12:03:54;;;;;;;18.67;8.73;;;;;;;;;;4190316;34;20113;-58
2020/12/16 12:06:20;;;;;;;13.73;7.43;;;;;;;;;;4190904;34;20551;-58
2020/12/16 12:08:46;;;;;;;21.87;11.15;;;;;;;;;;4190420;34;20126;-59
2020/12/16 12:11:17;;;;;;;21.08;9.30;;;;;;;;;;4190504;34;20121;-58
2020/12/16 12:13:43;;;;;;;11.75;8.18;;;;;;;;;;4190345;34;20210;-61
2020/12/16 12:16:10;;;;;;;12.70;8.38;;;;;;;;;;4177734;34;20126;-59
2020/12/16 12:18:39;;;;;;;16.70;8.60;;;;;;;;;;4190272;34;20211;-58
2020/12/16 12:21:05;;;;;;;27.02;9.35;;;;;;;;;;4190356;34;20593;-61
2020/12/16 12:23:31;;;;;;;14.25;9.13;;;;;;;;;;4177432;34;20124;-60
2020/12/16 12:25:57;;;;;;;28.45;9.60;;;;;;;;;;4177336;34;20126;-60
2020/12/16 12:28:23;;;;;;;16.77;8.60;;;;;;;;;;4177572;34;20141;-61
2020/12/16 12:30:50;;;;;;;16.73;8.75;;;;;;;;;;4181798;34;20164;-60
2020/12/16 12:33:16;;;;;;;16.90;9.77;;;;;;;;;;4176798;34;20129;-61
2020/12/16 12:35:42;;;;;;;17.23;9.15;;;;;;;;;;4174172;34;20106;-59
2020/12/16 12:38:09;;;;;;;21.37;10.95;;;;;;;;;;4176513;34;20106;-60
2020/12/16 12:40:35;;;;;;;20.77;9.82;;;;;;;;;;4175719;34;20528;-59
2020/12/16 12:43:01;;;;;;;27.58;19.62;;;;;;;;;;4178420;34;20475;-60
2020/12/16 12:45:27;;;;;;;27.48;19.92;;;;;;;;;;4165441;34;20126;-60
2020/12/16 12:47:53;;;;;;;29.95;21.67;;;;;;;;;;4178725;34;20218;-56
2020/12/16 12:50:19;;;;;;;25.20;19.10;;;;;;;;;;4178208;34;20128;-62
2020/12/16 12:52:46;;;;;;;22.42;17.02;;;;;;;;;;4185083;34;20133;-59
2020/12/16 12:55:12;;;;;;;19.90;13.85;;;;;;;;;;4191660;34;20532;-58
2020/12/16 12:57:40;;;;;;;15.75;11.68;;;;;;;;;;4178751;34;20118;-57
2020/12/16 13:00:06;;;;;;;15.48;10.95;;;;;;;;;;4178227;34;20172;-60
2020/12/16 13:02:32;;;;;;;18.70;10.07;;;;;;;;;;4178014;34;20653;-59
2020/12/16 13:04:58;;;;;;;17.65;9.15;;;;;;;;;;4189122;34;20126;-58
2020/12/16 13:07:24;;;;;;;12.63;8.90;;;;;;;;;;4191834;34;20201;-58
2020/12/16 13:09:49;;;;;;;19.25;9.55;;;;;;;;;;4192005;34;21056;-58
2020/12/16 13:12:15;;;;;;;19.75;9.60;;;;;;;;;;4192206;34;20432;-57
2020/12/16 13:14:41;;;;;;;14.70;9.23;;;;;;;;;;4192078;34;20125;-56
2020/12/16 13:17:07;;;;;;;17.27;9.38;;;;;;;;;;4192047;34;20094;-57
2020/12/16 13:19:33;;;;;;;14.70;8.68;;;;;;;;;;4191844;34;20544;-59
2020/12/16 13:22:01;;;;;;;14.98;11.63;;;;;;;;;;4179229;34;20125;-56
2020/12/16 13:24:27;;;;;;;16.95;10.25;;;;;;;;;;4191904;34;20146;-56
2020/12/16 13:26:53;;;;;;;16.52;9.65;;;;;;;;;;4191916;34;20217;-57
2020/12/16 13:29:19;;;;;;;18.67;12.93;;;;;;;;;;4193966;34;20096;-59
2020/12/16 13:31:49;;;;;;;17.73;10.15;;;;;;;;;;4193039;34;20530;-59
2020/12/16 13:34:15;;;;;;;18.73;10.75;;;;;;;;;;4204606;34;20184;-57
2020/12/16 13:36:49;;;;;;;16.23;11.07;;;;;;;;;;4205705;34;20182;-58
2020/12/16 13:39:24;;;;;;;15.00;11.40;;;;;;;;;;4193155;34;20090;-62
2020/12/16 13:41:54;;;;;;;12.27;10.48;;;;;;;;;;4179481;34;20118;-56
2020/12/16 13:44:20;;;;;;;16.12;10.27;;;;;;;;;;4191711;34;20561;-60
2020/12/16 13:46:46;;;;;;;13.75;10.60;;;;;;;;;;4191912;34;20110;-58
2020/12/16 13:49:12;;;;;;;14.30;10.40;;;;;;;;;;4191757;34;20108;-53
2020/12/16 13:51:38;;;;;;;17.33;9.75;;;;;;;;;;4191816;34;20102;-58
2020/12/16 13:54:04;;;;;;;16.20;10.32;;;;;;;;;;4191397;34;20128;-56
2020/12/16 13:56:30;;;;;;;15.05;9.75;;;;;;;;;;4191635;34;20503;-59
2020/12/16 13:58:57;;;;;;;16.85;10.20;;;;;;;;;;4191740;34;20666;-57
2020/12/16 14:01:27;;;;;;;21.17;10.93;;;;;;;;;;4191233;34;20233;-57
2020/12/16 14:03:53;;;;;;;16.80;12.23;;;;;;;;;;4191599;34;20161;-57
2020/12/16 14:06:19;;;;;;;17.52;11.95;;;;;;;;;;4191852;34;20126;-57
2020/12/16 14:08:45;;;;;;;19.92;13.10;;;;;;;;;;4191659;34;20090;-56
2020/12/16 14:11:12;;;;;;;19.30;12.25;;;;;;;;;;4188307;34;20109;-57
2020/12/16 14:13:38;;;;;;;18.15;11.88;;;;;;;;;;4190617;34;20121;-57
2020/12/16 14:16:10;;;;;;;20.85;14.52;;;;;;;;;;4182884;34;20117;-58
2020/12/16 14:18:37;;;;;;;20.33;14.35;;;;;;;;;;4178505;34;20129;-58
2020/12/16 14:21:07;;;;;;;22.92;15.80;;;;;;;;;;4178399;34;20563;-58
2020/12/16 14:23:33;;;;;;;23.38;15.50;;;;;;;;;;4178799;34;20129;-57
2020/12/16 14:25:59;;;;;;;23.85;16.50;;;;;;;;;;4191218;34;20221;-58
2020/12/16 14:28:25;;;;;;;24.65;17.85;;;;;;;;;;4178442;34;20201;-56
2020/12/16 14:30:52;;;;;;;22.45;16.73;;;;;;;;;;4190212;34;20550;-56
2020/12/16 14:33:18;;;;;;;21.27;13.25;;;;;;;;;;4191566;34;20121;-57
2020/12/16 14:35:44;;;;;;;18.52;12.40;;;;;;;;;;4191230;34;20562;-57
2020/12/16 14:38:10;;;;;;;22.02;14.73;;;;;;;;;;4191162;34;20145;-58
2020/12/16 14:40:36;;;;;;;19.70;12.20;;;;;;;;;;4193240;34;20501;-56